createdAt,value
2018-08-25T00:00:22.270Z,14.70
2018-08-25T00:02:51.739Z,14.80
2018-08-25T00:05:21.208Z,14.80
2018-08-25T00:07:50.651Z,14.90
2018-08-25T00:10:20.106Z,14.90
2018-08-25T00:12:49.512Z,14.90
2018-08-25T00:15:18.915Z,14.90
2018-08-25T00:17:48.305Z,15.00
2018-08-25T00:20:17.752Z,14.90
2018-08-25T00:22:47.160Z,14.90
2018-08-25T00:25:16.607Z,14.80
2018-08-25T00:27:45.988Z,14.80
2018-08-25T00:30:20.728Z,14.70
2018-08-25T00:32:50.162Z,14.60
2018-08-25T00:35:20.029Z,14.50
2018-08-25T00:37:49.487Z,14.50
2018-08-25T00:40:18.918Z,14.50
2018-08-25T00:42:48.353Z,14.40
2018-08-25T00:45:17.838Z,14.40
2018-08-25T00:47:47.341Z,14.40
2018-08-25T00:50:16.755Z,14.40
2018-08-25T00:52:46.253Z,14.40
2018-08-25T00:55:15.711Z,14.50
2018-08-25T00:57:45.255Z,14.50
2018-08-25T01:00:14.657Z,14.60
2018-08-25T01:02:44.182Z,14.60
2018-08-25T01:05:13.677Z,14.60
2018-08-25T01:07:43.101Z,14.60
2018-08-25T01:10:12.616Z,14.60
2018-08-25T01:12:42.052Z,14.70
2018-08-25T01:15:11.473Z,14.70
2018-08-25T01:17:40.935Z,14.70
2018-08-25T01:20:10.382Z,14.70
2018-08-25T01:22:40.094Z,14.70
2018-08-25T01:25:09.556Z,14.70
2018-08-25T01:27:39.011Z,14.70
2018-08-25T01:30:08.500Z,14.70
2018-08-25T01:32:37.944Z,14.60
2018-08-25T01:35:07.409Z,14.60
2018-08-25T01:37:36.848Z,14.60
2018-08-25T01:40:06.443Z,14.60
2018-08-25T01:42:35.918Z,14.60
2018-08-25T01:45:05.331Z,14.60
2018-08-25T01:47:35.249Z,14.50
2018-08-25T01:50:04.732Z,14.50
2018-08-25T01:52:34.215Z,14.40
2018-08-25T01:55:03.677Z,14.40
2018-08-25T01:57:33.118Z,14.40
2018-08-25T02:00:02.543Z,14.40
2018-08-25T02:02:32.040Z,14.50
2018-08-25T02:05:01.426Z,14.40
2018-08-25T02:07:30.875Z,14.40
2018-08-25T02:10:00.300Z,14.50
2018-08-25T02:12:29.745Z,14.40
2018-08-25T02:14:59.254Z,14.40
2018-08-25T02:17:28.710Z,14.30
2018-08-25T02:19:59.293Z,14.30
2018-08-25T02:22:28.855Z,14.30
2018-08-25T02:24:58.373Z,14.30
2018-08-25T03:00:28.704Z,14.00
2018-08-25T03:03:24.932Z,14.10
2018-08-25T03:09:05.311Z,14.20
2018-08-25T03:23:53.724Z,14.20
2018-08-25T03:26:23.128Z,14.20
2018-08-25T03:28:52.570Z,14.20
2018-08-25T03:31:22.042Z,14.20
2018-08-25T03:33:51.493Z,14.30
2018-08-25T03:36:20.944Z,14.30
2018-08-25T03:38:50.340Z,14.30
2018-08-25T03:41:19.783Z,14.20
2018-08-25T03:43:49.209Z,14.20
2018-08-25T03:46:18.626Z,14.20
2018-08-25T03:48:48.081Z,14.10
2018-08-25T03:51:17.505Z,14.10
2018-08-25T03:53:46.952Z,14.10
2018-08-25T03:56:16.463Z,14.10
2018-08-25T03:58:45.880Z,14.20
2018-08-25T04:01:15.320Z,14.20
2018-08-25T04:03:44.767Z,14.20
2018-08-25T04:06:14.202Z,14.20
2018-08-25T04:08:43.688Z,14.20
2018-08-25T04:11:13.123Z,14.20
2018-08-25T04:13:42.619Z,14.20
2018-08-25T04:16:12.110Z,14.20
2018-08-25T04:18:41.622Z,14.20
2018-08-25T04:21:11.061Z,14.20
2018-08-25T04:23:40.507Z,14.20
2018-08-25T04:26:09.991Z,14.20
2018-08-25T04:28:39.437Z,14.20
2018-08-25T04:31:08.882Z,14.20
2018-08-25T04:33:38.335Z,14.20
2018-08-25T04:36:07.812Z,14.30
2018-08-25T04:38:37.242Z,14.40
2018-08-25T04:41:06.679Z,14.50
2018-08-25T04:43:36.123Z,14.60
2018-08-25T04:46:05.971Z,14.60
2018-08-25T04:48:35.488Z,14.60
2018-08-25T04:51:04.940Z,14.60
2018-08-25T04:53:34.459Z,14.60
2018-08-25T04:56:03.913Z,14.60
2018-08-25T04:58:33.308Z,14.70
2018-08-25T05:01:02.802Z,14.70
2018-08-25T05:03:32.197Z,14.70
2018-08-25T05:06:01.643Z,14.70
2018-08-25T05:08:31.133Z,14.70
2018-08-25T05:11:00.602Z,14.80
2018-08-25T05:13:30.042Z,14.80
2018-08-25T05:15:59.482Z,14.80
2018-08-25T05:18:29.171Z,14.90
2018-08-25T05:20:58.694Z,14.90
2018-08-25T05:23:28.126Z,14.90
2018-08-25T05:25:57.509Z,15.00
2018-08-25T05:28:26.979Z,15.00
2018-08-25T05:30:56.408Z,15.00
2018-08-25T05:33:25.901Z,15.10
2018-08-25T05:35:55.348Z,15.10
2018-08-25T05:38:24.797Z,15.10
2018-08-25T05:40:54.246Z,15.10
2018-08-25T05:43:23.817Z,15.10
2018-08-25T05:45:53.223Z,15.10
2018-08-25T05:48:22.687Z,15.10
2018-08-25T05:50:52.081Z,15.10
2018-08-25T05:53:21.553Z,15.10
2018-08-25T05:55:50.988Z,15.10
2018-08-25T05:58:20.471Z,15.10
2018-08-25T06:00:49.990Z,15.10
2018-08-25T06:03:19.384Z,14.90
2018-08-25T06:05:48.825Z,14.80
2018-08-25T06:08:18.563Z,14.70
2018-08-25T06:10:47.973Z,14.50
2018-08-25T06:13:17.485Z,14.30
2018-08-25T06:15:47.026Z,14.00
2018-08-25T06:18:16.540Z,13.80
2018-08-25T06:20:46.005Z,13.70
2018-08-25T06:23:15.452Z,13.70
2018-08-25T06:25:44.952Z,13.60
2018-08-25T06:28:14.511Z,13.50
2018-08-25T06:30:44.394Z,13.50
2018-08-25T06:33:13.964Z,13.40
2018-08-25T06:35:43.542Z,13.30
2018-08-25T06:38:13.050Z,13.20
2018-08-25T06:40:42.657Z,13.10
2018-08-25T06:43:12.266Z,13.10
2018-08-25T06:45:41.734Z,13.10
2018-08-25T06:48:11.167Z,13.20
2018-08-25T06:50:40.692Z,13.20
2018-08-25T06:53:10.369Z,13.20
2018-08-25T06:55:39.901Z,13.30
2018-08-25T06:58:09.357Z,13.50
2018-08-25T07:00:38.802Z,13.60
2018-08-25T07:03:08.276Z,13.60
2018-08-25T07:05:38.052Z,13.60
2018-08-25T07:08:07.535Z,13.40
2018-08-25T07:10:37.038Z,13.30
2018-08-25T07:13:06.540Z,13.30
2018-08-25T07:15:36.006Z,13.50
2018-08-25T07:18:05.443Z,13.50
2018-08-25T07:20:34.902Z,13.70
2018-08-25T07:23:04.594Z,13.60
2018-08-25T07:25:34.144Z,13.40
2018-08-25T07:28:03.559Z,13.30
2018-08-25T07:30:33.179Z,13.40
2018-08-25T07:33:02.646Z,13.40
2018-08-25T07:35:32.103Z,13.50
2018-08-25T07:38:01.614Z,13.50
2018-08-25T07:40:31.025Z,13.50
2018-08-25T07:43:00.440Z,13.60
2018-08-25T07:45:29.909Z,13.60
2018-08-25T07:47:59.772Z,13.70
2018-08-25T07:50:29.175Z,13.90
2018-08-25T07:52:59.144Z,13.90
2018-08-25T07:55:28.551Z,13.80
2018-08-25T07:57:57.993Z,13.90
2018-08-25T08:00:27.495Z,14.20
2018-08-25T08:02:57.029Z,14.70
2018-08-25T08:05:26.508Z,15.10
2018-08-25T08:07:55.930Z,15.20
2018-08-25T08:10:25.423Z,15.20
2018-08-25T08:12:54.839Z,15.60
2018-08-25T08:15:24.324Z,15.70
2018-08-25T08:17:53.760Z,15.70
2018-08-25T08:20:23.223Z,15.60
2018-08-25T08:22:53.155Z,15.30
2018-08-25T08:25:22.577Z,15.00
2018-08-25T08:27:52.001Z,14.80
2018-08-25T08:30:21.438Z,14.80
2018-08-25T08:32:50.939Z,14.70
2018-08-25T08:35:20.350Z,14.60
2018-08-25T08:37:49.841Z,14.60
2018-08-25T08:40:19.321Z,14.50
2018-08-25T08:42:48.769Z,14.50
2018-08-25T08:45:18.284Z,14.80
2018-08-25T08:47:47.768Z,15.10
2018-08-25T08:50:17.275Z,15.10
2018-08-25T08:52:46.716Z,15.10
2018-08-25T08:55:16.157Z,15.00
2018-08-25T08:57:45.609Z,14.80
2018-08-25T09:00:15.073Z,14.60
2018-08-25T09:02:44.507Z,14.50
2018-08-25T09:05:14.005Z,14.40
2018-08-25T09:07:43.457Z,14.50
2018-08-25T09:10:12.927Z,14.50
2018-08-25T09:12:42.361Z,14.80
2018-08-25T09:15:11.830Z,15.00
2018-08-25T09:17:41.256Z,15.30
2018-08-25T09:20:10.799Z,15.30
2018-08-25T09:22:40.210Z,15.30
2018-08-25T09:25:09.638Z,15.50
2018-08-25T09:27:39.110Z,16.00
2018-08-25T09:30:09.140Z,16.10
2018-08-25T09:32:38.621Z,16.60
2018-08-25T09:35:08.102Z,17.10
2018-08-25T09:37:37.512Z,17.70
2018-08-25T09:40:06.973Z,18.00
2018-08-25T09:42:36.433Z,18.00
2018-08-25T09:45:06.501Z,18.20
2018-08-25T09:47:35.927Z,18.60
2018-08-25T09:50:05.427Z,18.80
2018-08-25T09:52:34.879Z,18.40
2018-08-25T09:55:04.408Z,18.50
2018-08-25T09:57:33.860Z,18.30
2018-08-25T10:00:03.452Z,18.00
2018-08-25T10:02:32.883Z,17.50
2018-08-25T10:05:02.313Z,17.10
2018-08-25T10:07:31.800Z,16.50
2018-08-25T10:10:01.215Z,15.90
2018-08-25T10:12:30.714Z,15.70
2018-08-25T10:15:00.421Z,15.40
2018-08-25T10:17:29.871Z,15.20
2018-08-25T10:19:59.341Z,15.10
2018-08-25T10:22:28.761Z,15.10
2018-08-25T10:24:58.206Z,15.30
2018-08-25T10:27:28.110Z,15.40
2018-08-25T10:29:57.568Z,15.90
2018-08-25T10:32:26.967Z,16.10
2018-08-25T10:34:56.455Z,16.30
2018-08-25T10:37:25.918Z,16.50
2018-08-25T10:39:55.356Z,16.90
2018-08-25T10:42:24.804Z,17.40
2018-08-25T10:44:54.258Z,17.60
2018-08-25T10:47:23.764Z,17.90
2018-08-25T10:49:53.203Z,18.30
2018-08-25T10:52:22.777Z,18.80
2018-08-25T10:54:52.326Z,18.90
2018-08-25T10:57:21.739Z,18.40
2018-08-25T10:59:51.210Z,17.90
2018-08-25T11:02:27.092Z,17.60
2018-08-25T11:04:56.564Z,17.10
2018-08-25T11:07:26.053Z,16.50
2018-08-25T11:09:55.501Z,16.10
2018-08-25T11:12:24.943Z,16.10
2018-08-25T11:14:54.384Z,15.90
2018-08-25T11:17:23.844Z,16.00
2018-08-25T11:19:53.333Z,16.20
2018-08-25T11:22:22.780Z,16.50
2018-08-25T11:24:52.199Z,16.90
2018-08-25T11:27:21.683Z,17.30
2018-08-25T11:29:51.529Z,17.50
2018-08-25T11:32:20.926Z,17.80
2018-08-25T11:34:50.374Z,17.80
2018-08-25T11:37:20.278Z,18.10
2018-08-25T11:39:49.701Z,18.50
2018-08-25T11:42:19.108Z,18.90
2018-08-25T11:44:48.572Z,19.10
2018-08-25T11:47:18.610Z,18.90
2018-08-25T11:49:48.239Z,18.60
2018-08-25T11:52:17.648Z,18.80
2018-08-25T11:54:47.099Z,18.50
2018-08-25T11:57:16.547Z,18.50
2018-08-25T11:59:45.986Z,18.90
2018-08-25T12:02:15.611Z,19.20
2018-08-25T12:04:45.079Z,19.40
2018-08-25T12:07:14.547Z,19.20
2018-08-25T12:09:44.058Z,19.00
2018-08-25T12:12:13.511Z,18.80
2018-08-25T12:14:42.996Z,18.60
2018-08-25T12:17:12.482Z,18.60
2018-08-25T12:19:41.937Z,18.20
2018-08-25T12:22:11.372Z,18.10
2018-08-25T12:24:40.836Z,18.00
2018-08-25T12:27:10.280Z,18.30
2018-08-25T12:29:39.706Z,18.40
2018-08-25T12:32:09.150Z,18.40
2018-08-25T12:34:38.600Z,18.30
2018-08-25T12:37:08.018Z,18.70
2018-08-25T12:39:37.582Z,18.90
2018-08-25T12:42:07.242Z,19.00
2018-08-25T12:44:36.673Z,18.80
2018-08-25T12:47:06.239Z,18.70
2018-08-25T12:49:35.727Z,18.80
2018-08-25T12:52:05.210Z,18.70
2018-08-25T12:54:34.662Z,18.60
2018-08-25T12:57:04.128Z,18.70
2018-08-25T12:59:33.554Z,18.70
2018-08-25T13:02:03.178Z,18.80
2018-08-25T13:04:32.635Z,18.60
2018-08-25T13:07:02.090Z,18.80
2018-08-25T13:09:31.521Z,19.00
2018-08-25T13:12:00.951Z,19.10
2018-08-25T13:14:30.451Z,19.20
2018-08-25T13:17:00.125Z,19.40
2018-08-25T13:19:29.602Z,19.30
2018-08-25T13:21:59.149Z,19.30
2018-08-25T13:24:28.499Z,19.00
2018-08-25T13:26:57.953Z,18.90
2018-08-25T13:29:27.401Z,19.00
2018-08-25T13:31:56.848Z,19.20
2018-08-25T13:34:26.315Z,19.80
2018-08-25T13:36:55.882Z,19.70
2018-08-25T13:39:25.312Z,19.50
2018-08-25T13:41:54.857Z,19.40
2018-08-25T13:44:24.294Z,19.60
2018-08-25T13:46:53.859Z,19.70
2018-08-25T13:49:23.442Z,19.70
2018-08-25T13:51:52.932Z,19.70
2018-08-25T13:54:22.333Z,19.50
2018-08-25T13:56:52.123Z,19.30
2018-08-25T13:59:21.548Z,19.00
2018-08-25T14:01:50.965Z,18.70
2018-08-25T14:04:20.425Z,18.60
2018-08-25T14:06:49.857Z,18.20
2018-08-25T14:09:19.323Z,17.70
2018-08-25T14:11:48.783Z,17.00
2018-08-25T14:14:18.755Z,16.80
2018-08-25T14:16:48.178Z,16.50
2018-08-25T14:19:17.618Z,16.40
2018-08-25T14:21:47.071Z,16.10
2018-08-25T14:24:16.594Z,16.00
2018-08-25T14:26:46.051Z,16.00
2018-08-25T14:29:15.868Z,16.30
2018-08-25T14:31:45.388Z,16.50
2018-08-25T14:34:14.893Z,17.10
2018-08-25T14:36:44.461Z,17.60
2018-08-25T14:39:13.973Z,17.90
2018-08-25T14:41:43.473Z,18.30
2018-08-25T14:44:12.951Z,18.70
2018-08-25T14:46:42.345Z,18.70
2018-08-25T14:49:11.913Z,18.70
2018-08-25T14:51:41.640Z,18.90
2018-08-25T14:54:11.191Z,19.10
2018-08-25T14:56:40.617Z,19.30
2018-08-25T14:59:10.054Z,19.20
2018-08-25T15:01:39.521Z,19.40
2018-08-25T15:04:08.970Z,19.20
2018-08-25T15:06:38.474Z,18.90
2018-08-25T15:09:10.986Z,18.70
2018-08-25T15:11:40.554Z,18.60
2018-08-25T15:14:10.304Z,18.60
2018-08-25T15:16:39.827Z,18.60
2018-08-25T15:19:09.236Z,18.50
2018-08-25T15:21:38.674Z,18.20
2018-08-25T15:24:08.486Z,17.80
2018-08-25T15:26:37.978Z,17.50
2018-08-25T15:29:07.489Z,17.50
2018-08-25T15:31:37.036Z,17.60
2018-08-25T15:34:07.063Z,17.60
2018-08-25T15:36:36.925Z,17.50
2018-08-25T15:39:10.022Z,17.50
2018-08-25T15:41:39.461Z,17.40
2018-08-25T15:44:08.934Z,17.40
2018-08-25T15:46:38.357Z,17.30
2018-08-25T15:49:08.137Z,17.20
2018-08-25T15:51:37.606Z,17.20
2018-08-25T15:54:07.561Z,17.20
2018-08-25T15:56:36.995Z,17.50
2018-08-25T15:59:06.717Z,17.80
2018-08-25T16:01:36.200Z,18.10
2018-08-25T16:04:05.708Z,18.10
2018-08-25T16:06:35.116Z,18.20
2018-08-25T16:24:29.406Z,18.20
2018-08-25T16:27:03.411Z,18.30
2018-08-25T16:29:34.398Z,18.40
2018-08-25T16:32:04.700Z,18.50
2018-08-25T16:34:38.069Z,18.10
2018-08-25T16:37:24.638Z,17.80
2018-08-25T16:39:57.883Z,17.50
2018-08-25T16:42:32.192Z,17.20
2018-08-25T16:45:02.204Z,17.00
2018-08-25T16:47:35.459Z,16.70
2018-08-25T16:50:10.133Z,16.60
2018-08-25T16:52:44.243Z,16.60
2018-08-25T16:55:13.792Z,16.50
2018-08-25T16:57:43.306Z,16.40
2018-08-25T17:00:12.865Z,16.40
2018-08-25T17:02:42.405Z,16.40
2018-08-25T17:05:12.011Z,16.40
2018-08-25T17:07:42.304Z,16.40
2018-08-25T17:10:12.374Z,16.70
2018-08-25T17:12:50.695Z,16.90
2018-08-25T17:15:20.643Z,17.10
2018-08-25T17:17:50.373Z,17.20
2018-08-25T17:20:20.024Z,17.20
2018-08-25T17:22:50.040Z,17.20
2018-08-25T17:25:19.597Z,17.10
2018-08-25T17:27:49.158Z,17.00
2018-08-25T17:30:18.712Z,16.90
2018-08-25T17:32:58.953Z,16.70
2018-08-25T17:35:28.565Z,16.50
2018-08-25T17:37:58.550Z,16.20
2018-08-25T17:40:28.458Z,16.10
2018-08-25T17:42:57.990Z,15.90
2018-08-25T17:45:27.569Z,15.90
2018-08-25T17:47:57.100Z,16.00
2018-08-25T17:50:26.684Z,16.00
2018-08-25T17:52:56.246Z,16.00
2018-08-25T17:55:25.847Z,15.90
2018-08-25T17:57:55.366Z,15.80
2018-08-25T18:00:24.922Z,15.70
2018-08-25T18:02:54.459Z,15.60
2018-08-25T18:05:23.967Z,15.50
2018-08-25T18:07:53.564Z,15.50
2018-08-25T18:10:23.098Z,15.40
2018-08-25T18:12:52.616Z,15.30
2018-08-25T18:15:22.219Z,15.20
2018-08-25T18:17:51.781Z,15.00
2018-08-25T18:20:21.423Z,15.00
2018-08-25T18:22:51.410Z,14.90
2018-08-25T18:25:21.557Z,14.80
2018-08-25T18:27:51.895Z,14.80
2018-08-25T18:30:22.798Z,14.80
2018-08-25T18:32:53.025Z,14.80
2018-08-25T18:35:23.204Z,14.80
2018-08-25T18:37:52.774Z,14.70
2018-08-25T18:40:22.298Z,14.70
2018-08-25T18:42:51.864Z,14.60
2018-08-25T18:45:21.409Z,14.60
2018-08-25T18:47:51.013Z,14.50
2018-08-25T18:50:20.622Z,14.50
2018-08-25T18:52:50.157Z,14.40
2018-08-25T18:55:19.737Z,14.40
2018-08-25T18:57:49.413Z,14.40
2018-08-25T19:00:18.906Z,14.40
2018-08-25T19:02:48.486Z,14.20
2018-08-25T19:05:17.983Z,14.20
2018-08-25T19:07:47.498Z,14.10
2018-08-25T19:10:17.100Z,14.10
2018-08-25T19:12:46.678Z,14.00
2018-08-25T19:15:16.227Z,13.90
2018-08-25T19:17:45.749Z,13.90
2018-08-25T19:20:15.319Z,13.80
2018-08-25T19:22:44.861Z,13.90
2018-08-25T19:25:14.385Z,13.90
2018-08-25T19:27:44.221Z,13.80
2018-08-25T19:30:13.707Z,13.80
2018-08-25T19:32:43.274Z,13.80
2018-08-25T19:35:12.849Z,13.80
2018-08-25T19:37:42.371Z,13.80
2018-08-25T19:40:11.961Z,13.80
2018-08-25T19:42:41.604Z,13.90
2018-08-25T19:45:11.114Z,13.80
2018-08-25T19:47:40.715Z,13.80
2018-08-25T19:50:10.269Z,13.60
2018-08-25T19:52:39.887Z,13.60
2018-08-25T19:55:09.440Z,13.40
2018-08-25T19:57:40.978Z,13.30
2018-08-25T20:00:10.607Z,13.10
2018-08-25T20:02:40.090Z,12.90
2018-08-25T20:05:09.764Z,12.90
2018-08-25T20:07:39.336Z,12.80
2018-08-25T20:10:08.891Z,12.70
2018-08-25T20:12:38.412Z,12.70
2018-08-25T20:15:07.998Z,12.50
2018-08-25T20:17:37.509Z,12.40
2018-08-25T20:20:07.127Z,12.40
2018-08-25T20:22:36.621Z,12.40
2018-08-25T20:25:06.410Z,12.30
2018-08-25T20:27:35.921Z,12.10
2018-08-25T20:30:06.301Z,12.10
2018-08-25T20:32:35.854Z,12.00
2018-08-25T20:35:05.685Z,12.00
2018-08-25T20:37:35.178Z,12.10
2018-08-25T20:40:04.921Z,12.00
2018-08-25T20:42:34.611Z,12.00
2018-08-25T20:45:04.213Z,11.90
2018-08-25T20:47:34.111Z,11.80
2018-08-25T20:50:03.702Z,11.90
2018-08-25T20:52:33.272Z,11.90
2018-08-25T20:55:02.799Z,11.90
2018-08-25T20:57:32.325Z,11.90
2018-08-25T21:00:01.868Z,11.90
2018-08-25T21:02:31.393Z,11.90
2018-08-25T21:05:00.917Z,11.90
2018-08-25T21:07:30.530Z,11.90
2018-08-25T21:10:00.057Z,11.90
2018-08-25T21:12:29.632Z,11.90
2018-08-25T21:14:59.197Z,11.90
2018-08-25T21:17:28.736Z,11.90
2018-08-25T21:19:58.595Z,11.90
2018-08-25T21:22:28.151Z,11.90
2018-08-25T21:24:57.706Z,11.80
2018-08-25T21:27:27.225Z,11.80
2018-08-25T21:29:56.724Z,11.80
2018-08-25T21:32:26.248Z,11.80
2018-08-25T21:34:56.859Z,11.80
2018-08-25T21:37:26.492Z,11.70
2018-08-25T21:39:56.071Z,11.70
2018-08-25T21:42:25.796Z,11.70
2018-08-25T21:44:55.336Z,11.70
2018-08-25T21:47:24.984Z,11.70
2018-08-25T21:49:54.926Z,11.70
2018-08-25T21:52:25.056Z,11.70
2018-08-25T21:55:04.621Z,11.70
2018-08-25T21:57:35.336Z,11.70
2018-08-25T22:00:05.756Z,11.60
2018-08-25T22:02:35.259Z,11.60
2018-08-25T22:05:04.971Z,11.60
2018-08-25T22:07:35.004Z,11.60
2018-08-25T22:10:04.635Z,11.50
2018-08-25T22:12:35.070Z,11.50
2018-08-25T22:15:05.144Z,11.60
2018-08-25T22:17:34.626Z,11.50
2018-08-25T22:20:04.225Z,11.50
2018-08-25T22:22:33.760Z,11.60
2018-08-25T22:25:03.353Z,11.60
2018-08-25T22:27:32.835Z,11.60
2018-08-25T22:30:02.403Z,11.50
2018-08-25T22:32:31.880Z,11.60
2018-08-25T22:35:01.456Z,11.50
2018-08-25T22:37:31.064Z,11.50
2018-08-25T22:40:00.592Z,11.50
2018-08-25T22:42:30.151Z,11.50
2018-08-25T22:44:59.646Z,11.50
2018-08-25T22:47:29.193Z,11.50
2018-08-25T22:49:58.745Z,11.50
2018-08-25T22:52:58.783Z,11.50
2018-08-25T22:55:28.337Z,11.40
2018-08-25T22:57:57.876Z,11.30
2018-08-25T23:00:27.420Z,11.30
2018-08-25T23:02:56.980Z,11.20
2018-08-25T23:05:26.501Z,11.20
2018-08-25T23:07:56.003Z,11.20
2018-08-25T23:10:25.546Z,11.20
2018-08-25T23:12:55.090Z,11.10
2018-08-25T23:15:24.659Z,11.10
2018-08-25T23:17:54.157Z,11.00
2018-08-25T23:20:23.718Z,11.10
2018-08-25T23:22:53.294Z,11.00
2018-08-25T23:25:22.820Z,11.00
2018-08-25T23:27:52.384Z,11.00
2018-08-25T23:30:22.039Z,11.00
2018-08-25T23:32:51.549Z,10.90
2018-08-25T23:35:21.076Z,10.90
2018-08-25T23:37:50.558Z,10.90
2018-08-25T23:40:20.063Z,10.90
2018-08-25T23:42:49.551Z,10.90
2018-08-25T23:45:19.053Z,10.90
2018-08-25T23:47:48.610Z,10.90
2018-08-25T23:50:18.115Z,10.90
2018-08-25T23:52:48.069Z,10.90
2018-08-25T23:55:17.566Z,10.90
2018-08-25T23:57:47.082Z,10.90
